Time;durP1;ratioP1;P1;durP2;ratioP2;P2;SDS_P1;SDS_P2;PMS_P1;PMS_P2;Temp;Humidity;BMP_temperature;BMP_pressure;BME280_temperature;BME280_humidity;BME280_pressure;Samples;Min_cycle;Max_cycle;Signal;HPM_P1;HPM_P2
2021/09/10 00:02:17;;;;;;;10.65;4.75;;;;;;;;;;5097500;28;20030;-93
2021/09/10 00:04:43;;;;;;;10.35;5.47;;;;;;;;;;5096625;28;20032;-92
2021/09/10 00:07:09;;;;;;;11.50;4.93;;;;;;;;;;5096484;28;20485;-93
2021/09/10 00:09:35;;;;;;;13.27;5.85;;;;;;;;;;5096835;28;20426;-94
2021/09/10 00:12:01;;;;;;;14.77;5.57;;;;;;;;;;5096920;28;20437;-93
2021/09/10 00:14:27;;;;;;;14.18;5.72;;;;;;;;;;5097396;28;20105;-92
2021/09/10 00:16:53;;;;;;;14.77;6.97;;;;;;;;;;5096567;28;20013;-92
2021/09/10 00:19:19;;;;;;;16.60;6.75;;;;;;;;;;5097535;28;20310;-93
2021/09/10 00:21:45;;;;;;;17.75;8.10;;;;;;;;;;5096412;28;20027;-92
2021/09/10 00:24:12;;;;;;;17.85;6.85;;;;;;;;;;5097573;28;20029;-93
2021/09/10 00:26:38;;;;;;;14.63;6.45;;;;;;;;;;5097260;28;20114;-93
2021/09/10 00:29:04;;;;;;;16.92;6.13;;;;;;;;;;5097184;28;20070;-90
2021/09/10 00:31:30;;;;;;;15.55;5.97;;;;;;;;;;5097290;28;20031;-90
2021/09/10 00:33:56;;;;;;;8.70;4.72;;;;;;;;;;5095782;28;20063;-90
2021/09/10 00:36:22;;;;;;;13.02;5.50;;;;;;;;;;5096638;28;20064;-92
2021/09/10 00:38:48;;;;;;;11.43;5.10;;;;;;;;;;5096271;28;20024;-91
2021/09/10 00:41:14;;;;;;;10.02;4.43;;;;;;;;;;5098134;28;20066;-92
2021/09/10 00:43:40;;;;;;;14.07;4.63;;;;;;;;;;5100736;28;20058;-91
2021/09/10 00:46:06;;;;;;;12.27;4.28;;;;;;;;;;5100105;28;20032;-92
2021/09/10 00:48:33;;;;;;;10.77;4.30;;;;;;;;;;5099811;28;20035;-92
2021/09/10 00:50:59;;;;;;;10.48;4.55;;;;;;;;;;5100502;28;20326;-92
2021/09/10 00:53:26;;;;;;;10.32;4.47;;;;;;;;;;5100986;28;20330;-93
2021/09/10 00:55:52;;;;;;;7.40;4.22;;;;;;;;;;5100949;28;20032;-91
2021/09/10 00:58:18;;;;;;;8.13;4.43;;;;;;;;;;5100346;28;20024;-91
2021/09/10 01:00:45;;;;;;;13.20;4.60;;;;;;;;;;5100475;28;20160;-92
2021/09/10 01:03:14;;;;;;;13.18;4.53;;;;;;;;;;5099697;28;20101;-92
2021/09/10 01:05:43;;;;;;;9.38;4.80;;;;;;;;;;5099452;28;20020;-91
2021/09/10 01:08:12;;;;;;;7.63;4.25;;;;;;;;;;5100354;28;20110;-92
2021/09/10 01:10:38;;;;;;;7.78;4.13;;;;;;;;;;5100062;28;20078;-92
2021/09/10 01:13:05;;;;;;;13.48;4.18;;;;;;;;;;5100341;28;20028;-91
2021/09/10 01:15:31;;;;;;;8.25;3.97;;;;;;;;;;5099189;28;20314;-90
2021/09/10 01:17:57;;;;;;;8.85;4.05;;;;;;;;;;5100064;28;20020;-91
2021/09/10 01:20:23;;;;;;;7.43;4.32;;;;;;;;;;5100290;28;20027;-91
2021/09/10 01:22:49;;;;;;;9.48;5.15;;;;;;;;;;5098934;28;20020;-91
2021/09/10 01:25:18;;;;;;;8.43;4.38;;;;;;;;;;5099151;28;20606;-92
2021/09/10 01:27:47;;;;;;;6.05;4.20;;;;;;;;;;5100243;28;20016;-91
2021/09/10 01:30:15;;;;;;;20.15;5.35;;;;;;;;;;5100134;28;20024;-91
2021/09/10 01:32:41;;;;;;;16.13;4.80;;;;;;;;;;5098963;28;20028;-90
2021/09/10 01:35:08;;;;;;;10.65;4.38;;;;;;;;;;5099314;28;20050;-92
2021/09/10 01:37:34;;;;;;;10.25;4.75;;;;;;;;;;5099823;28;20409;-91
2021/09/10 01:40:00;;;;;;;10.07;4.60;;;;;;;;;;5099869;28;20095;-91
2021/09/10 01:42:26;;;;;;;12.35;4.80;;;;;;;;;;5099624;28;20026;-90
2021/09/10 01:44:52;;;;;;;12.38;4.82;;;;;;;;;;5099598;28;20032;-91
2021/09/10 01:47:18;;;;;;;12.23;5.20;;;;;;;;;;5099840;28;20046;-92
2021/09/10 01:49:44;;;;;;;8.95;5.10;;;;;;;;;;5099360;28;20028;-93
2021/09/10 01:52:11;;;;;;;10.18;4.70;;;;;;;;;;5098602;28;20055;-93
2021/09/10 01:54:37;;;;;;;11.63;4.53;;;;;;;;;;5098431;28;20024;-93
2021/09/10 01:57:03;;;;;;;11.38;5.68;;;;;;;;;;5098576;28;20410;-93
2021/09/10 01:59:29;;;;;;;11.50;4.55;;;;;;;;;;5099336;28;20031;-94
2021/09/10 02:01:55;;;;;;;11.40;4.82;;;;;;;;;;5099302;28;20024;-93
2021/09/10 02:04:21;;;;;;;6.90;4.38;;;;;;;;;;5098824;28;20043;-92
2021/09/10 02:06:47;;;;;;;8.38;4.40;;;;;;;;;;5098215;28;20115;-92
2021/09/10 02:09:14;;;;;;;11.18;5.45;;;;;;;;;;5099435;28;20034;-91
2021/09/10 02:11:40;;;;;;;12.50;4.80;;;;;;;;;;5098247;28;20097;-91
2021/09/10 02:14:06;;;;;;;10.75;4.55;;;;;;;;;;5098150;28;20027;-91
2021/09/10 02:16:32;;;;;;;7.38;4.80;;;;;;;;;;5099061;28;20016;-92
2021/09/10 02:18:58;;;;;;;12.00;5.13;;;;;;;;;;5098457;28;20028;-92
2021/09/10 02:21:24;;;;;;;10.57;4.78;;;;;;;;;;5099293;28;20024;-91
2021/09/10 02:23:50;;;;;;;9.55;5.30;;;;;;;;;;5099091;28;20016;-92
2021/09/10 02:26:16;;;;;;;13.10;4.93;;;;;;;;;;5098296;28;20133;-92
2021/09/10 02:28:42;;;;;;;13.80;4.63;;;;;;;;;;5097997;28;20062;-93
2021/09/10 02:31:09;;;;;;;7.28;4.40;;;;;;;;;;5098584;28;20077;-92
2021/09/10 02:33:35;;;;;;;10.55;5.00;;;;;;;;;;5097524;28;20448;-92
2021/09/10 02:36:01;;;;;;;7.13;5.28;;;;;;;;;;5098767;28;20112;-89
2021/09/10 02:38:27;;;;;;;8.00;4.93;;;;;;;;;;5097855;28;20013;-90
2021/09/10 02:40:56;;;;;;;11.88;5.15;;;;;;;;;;5098746;28;20406;-90
2021/09/10 02:43:22;;;;;;;10.15;5.03;;;;;;;;;;5098583;28;20024;-90
2021/09/10 02:45:48;;;;;;;12.05;4.93;;;;;;;;;;5097636;28;20024;-90
2021/09/10 02:48:14;;;;;;;11.35;4.88;;;;;;;;;;5098442;28;20032;-92
2021/09/10 02:50:40;;;;;;;11.88;5.80;;;;;;;;;;5098672;28;20357;-92
2021/09/10 02:53:07;;;;;;;7.80;4.57;;;;;;;;;;5097414;28;20024;-91
2021/09/10 02:55:33;;;;;;;12.00;5.68;;;;;;;;;;5098374;28;20031;-92
2021/09/10 02:57:59;;;;;;;11.00;5.55;;;;;;;;;;5097560;28;20027;-92
2021/09/10 03:00:25;;;;;;;15.73;5.07;;;;;;;;;;5097321;28;20024;-93
2021/09/10 03:02:51;;;;;;;10.45;5.03;;;;;;;;;;5098102;28;20342;-93
2021/09/10 03:05:17;;;;;;;8.38;5.28;;;;;;;;;;5097735;28;20111;-92
2021/09/10 03:07:43;;;;;;;9.35;5.15;;;;;;;;;;5097185;28;20024;-91
2021/09/10 03:10:09;;;;;;;10.00;5.28;;;;;;;;;;5097452;28;20032;-92
2021/09/10 03:12:36;;;;;;;9.23;4.95;;;;;;;;;;5098086;28;20024;-93
2021/09/10 03:15:07;;;;;;;9.30;4.97;;;;;;;;;;5098017;28;20077;-92
2021/09/10 03:17:33;;;;;;;10.45;4.93;;;;;;;;;;5097938;28;20023;-94
2021/09/10 03:19:59;;;;;;;13.75;5.53;;;;;;;;;;5097037;28;20032;-90
2021/09/10 03:22:25;;;;;;;7.88;5.43;;;;;;;;;;5098041;28;20028;-90
2021/09/10 03:24:51;;;;;;;12.77;5.40;;;;;;;;;;5097868;28;20020;-88
2021/09/10 03:27:17;;;;;;;7.57;5.05;;;;;;;;;;5097934;28;20028;-90
2021/09/10 03:29:43;;;;;;;12.23;4.88;;;;;;;;;;5097811;28;20028;-90
2021/09/10 03:32:09;;;;;;;9.52;5.30;;;;;;;;;;5097852;28;20451;-90
2021/09/10 03:34:35;;;;;;;9.50;5.55;;;;;;;;;;5097526;28;20326;-92
2021/09/10 03:37:01;;;;;;;9.55;5.20;;;;;;;;;;5097876;28;20039;-91
2021/09/10 03:39:27;;;;;;;7.80;5.00;;;;;;;;;;5097688;28;20048;-91
2021/09/10 03:41:53;;;;;;;7.60;5.28;;;;;;;;;;5097845;28;20024;-90
2021/09/10 03:44:19;;;;;;;9.77;5.15;;;;;;;;;;5096685;28;20368;-90
2021/09/10 03:46:46;;;;;;;9.32;5.60;;;;;;;;;;5097807;28;20036;-91
2021/09/10 03:49:12;;;;;;;11.98;5.15;;;;;;;;;;5097981;28;20024;-91
2021/09/10 03:51:38;;;;;;;12.57;5.50;;;;;;;;;;5097769;28;20028;-90
2021/09/10 03:54:04;;;;;;;12.77;5.75;;;;;;;;;;5097746;28;20030;-90
2021/09/10 03:56:30;;;;;;;8.40;5.65;;;;;;;;;;5097582;28;20024;-91
2021/09/10 03:58:56;;;;;;;8.88;5.10;;;;;;;;;;5097570;28;20024;-91
2021/09/10 04:01:22;;;;;;;12.73;5.50;;;;;;;;;;5096887;28;20032;-91
2021/09/10 04:03:48;;;;;;;10.68;5.10;;;;;;;;;;5096624;28;20038;-91
2021/09/10 04:06:14;;;;;;;11.95;5.63;;;;;;;;;;5097625;28;20065;-91
2021/09/10 04:08:41;;;;;;;13.45;5.32;;;;;;;;;;5096702;28;20313;-92
2021/09/10 04:11:07;;;;;;;11.10;5.07;;;;;;;;;;5097474;28;20047;-92
2021/09/10 04:13:33;;;;;;;9.20;5.00;;;;;;;;;;5097392;28;20373;-92
2021/09/10 04:16:01;;;;;;;11.73;5.25;;;;;;;;;;5096713;28;20028;-90
2021/09/10 04:18:27;;;;;;;9.63;4.82;;;;;;;;;;5101345;28;20077;-89
2021/09/10 04:20:53;;;;;;;7.90;4.70;;;;;;;;;;5101357;28;20024;-91
2021/09/10 04:23:19;;;;;;;19.13;5.70;;;;;;;;;;5100685;28;20024;-90
2021/09/10 04:25:45;;;;;;;12.88;6.20;;;;;;;;;;5100377;28;20047;-91
2021/09/10 04:28:12;;;;;;;9.95;4.68;;;;;;;;;;5101095;28;20401;-92
2021/09/10 04:30:38;;;;;;;13.68;5.07;;;;;;;;;;5100979;28;20052;-91
2021/09/10 04:33:04;;;;;;;11.63;4.63;;;;;;;;;;5100684;28;20437;-92
2021/09/10 04:35:31;;;;;;;9.93;4.63;;;;;;;;;;5101174;28;20310;-91
2021/09/10 04:37:57;;;;;;;10.07;4.65;;;;;;;;;;5100068;28;20107;-91
2021/09/10 04:40:23;;;;;;;9.57;4.88;;;;;;;;;;5099813;28;20023;-91
2021/09/10 04:42:49;;;;;;;14.43;4.95;;;;;;;;;;5100050;28;20024;-91
2021/09/10 04:45:15;;;;;;;9.07;4.70;;;;;;;;;;5100700;28;20347;-91
2021/09/10 04:47:41;;;;;;;11.35;4.95;;;;;;;;;;5100966;28;20092;-90
2021/09/10 04:50:07;;;;;;;9.80;4.40;;;;;;;;;;5100917;28;20050;-91
2021/09/10 04:52:34;;;;;;;11.13;4.45;;;;;;;;;;5100900;28;20024;-91
2021/09/10 04:55:01;;;;;;;9.27;4.32;;;;;;;;;;5099725;28;20338;-92
2021/09/10 04:57:27;;;;;;;8.88;4.72;;;;;;;;;;5100388;28;20481;-90
2021/09/10 04:59:53;;;;;;;10.50;4.43;;;;;;;;;;5100726;28;20028;-91
2021/09/10 05:02:19;;;;;;;10.07;5.07;;;;;;;;;;5100597;28;20410;-92
2021/09/10 05:04:46;;;;;;;10.30;4.50;;;;;;;;;;5100772;28;20127;-94
2021/09/10 05:07:12;;;;;;;7.78;4.35;;;;;;;;;;5099415;28;20055;-91
2021/09/10 05:09:38;;;;;;;7.63;4.45;;;;;;;;;;5099466;28;20032;-91
2021/09/10 05:12:04;;;;;;;8.70;4.30;;;;;;;;;;5100397;28;20024;-90
2021/09/10 05:14:30;;;;;;;13.15;5.00;;;;;;;;;;5100199;28;20028;-90
2021/09/10 05:16:56;;;;;;;6.60;4.28;;;;;;;;;;5099233;28;20028;-88
2021/09/10 05:19:22;;;;;;;11.98;5.18;;;;;;;;;;5099564;28;20028;-90
2021/09/10 05:21:49;;;;;;;13.45;5.97;;;;;;;;;;5100052;28;20025;-90
2021/09/10 05:24:15;;;;;;;10.68;6.40;;;;;;;;;;5099245;28;20310;-91
2021/09/10 05:26:41;;;;;;;15.73;5.43;;;;;;;;;;5100000;28;20025;-92
2021/09/10 05:29:07;;;;;;;9.20;4.60;;;;;;;;;;5099843;28;20028;-92
2021/09/10 05:31:33;;;;;;;11.98;4.80;;;;;;;;;;5099208;28;20065;-87
2021/09/10 05:33:59;;;;;;;17.70;5.65;;;;;;;;;;5099488;28;20048;-90
2021/09/10 05:36:25;;;;;;;13.73;5.35;;;;;;;;;;5099016;28;20314;-87
2021/09/10 05:38:51;;;;;;;14.75;5.35;;;;;;;;;;5099735;28;20031;-87
2021/09/10 05:41:17;;;;;;;11.48;5.20;;;;;;;;;;5099630;28;20463;-86
2021/09/10 05:43:43;;;;;;;12.32;4.85;;;;;;;;;;5098589;28;20036;-86
2021/09/10 05:46:10;;;;;;;8.45;5.80;;;;;;;;;;5099520;28;20026;-86
2021/09/10 05:48:36;;;;;;;10.27;5.63;;;;;;;;;;5098799;28;20072;-86
2021/09/10 05:51:02;;;;;;;12.48;5.55;;;;;;;;;;5098626;28;20044;-87
2021/09/10 05:53:29;;;;;;;13.48;5.43;;;;;;;;;;5099613;28;20028;-87
2021/09/10 05:55:55;;;;;;;14.70;5.60;;;;;;;;;;5099133;28;20036;-84
2021/09/10 05:58:22;;;;;;;19.92;9.50;;;;;;;;;;5099256;28;20027;-83
2021/09/10 06:00:48;;;;;;;17.77;8.18;;;;;;;;;;5098388;28;20043;-87
2021/09/10 06:03:14;;;;;;;12.10;6.38;;;;;;;;;;5098310;28;20081;-87
2021/09/10 06:05:40;;;;;;;14.45;5.28;;;;;;;;;;5098029;28;20031;-87
2021/09/10 06:08:07;;;;;;;12.50;5.20;;;;;;;;;;5099412;28;20016;-87
2021/09/10 06:10:33;;;;;;;8.10;4.63;;;;;;;;;;5099371;28;20440;-87
2021/09/10 06:12:59;;;;;;;9.43;5.10;;;;;;;;;;5098577;28;20032;-87
2021/09/10 06:15:25;;;;;;;10.05;5.10;;;;;;;;;;5097968;28;20059;-86
2021/09/10 06:17:51;;;;;;;11.90;5.32;;;;;;;;;;5098885;28;20020;-87
2021/09/10 06:20:17;;;;;;;19.80;7.75;;;;;;;;;;5098926;28;20031;-87
2021/09/10 06:22:43;;;;;;;19.48;4.78;;;;;;;;;;5098596;28;20035;-86
2021/09/10 06:25:10;;;;;;;18.45;5.47;;;;;;;;;;5098047;28;20028;-87
2021/09/10 06:27:37;;;;;;;9.18;5.47;;;;;;;;;;5098921;28;20104;-87
2021/09/10 06:30:04;;;;;;;15.88;5.30;;;;;;;;;;5098301;28;20043;-86
2021/09/10 06:32:30;;;;;;;23.83;12.00;;;;;;;;;;5097584;28;20027;-87
2021/09/10 06:34:56;;;;;;;12.05;6.05;;;;;;;;;;5098124;28;20048;-87
2021/09/10 06:37:23;;;;;;;18.42;12.52;;;;;;;;;;5098847;28;20024;-87
2021/09/10 06:39:49;;;;;;;18.88;9.23;;;;;;;;;;5096888;28;20020;-87
2021/09/10 06:42:15;;;;;;;14.68;8.00;;;;;;;;;;5098007;28;20043;-87
2021/09/10 06:44:42;;;;;;;18.35;8.15;;;;;;;;;;5098621;28;20072;-87
2021/09/10 06:47:08;;;;;;;15.40;9.35;;;;;;;;;;5098553;28;20445;-87
2021/09/10 06:49:34;;;;;;;16.00;8.57;;;;;;;;;;5098385;28;20030;-86
2021/09/10 06:52:00;;;;;;;15.82;9.50;;;;;;;;;;5097367;28;20032;-87
2021/09/10 06:54:26;;;;;;;16.65;7.10;;;;;;;;;;5097701;28;20059;-86
2021/09/10 06:56:52;;;;;;;17.23;7.78;;;;;;;;;;5097381;28;20028;-87
2021/09/10 06:59:19;;;;;;;16.10;8.60;;;;;;;;;;5097535;28;20039;-86
2021/09/10 07:01:46;;;;;;;14.07;5.72;;;;;;;;;;5097346;28;20027;-87
2021/09/10 07:04:12;;;;;;;14.00;7.93;;;;;;;;;;5098241;28;20043;-87
2021/09/10 07:06:38;;;;;;;10.88;6.85;;;;;;;;;;5098440;28;20036;-86
2021/09/10 07:09:04;;;;;;;11.77;5.60;;;;;;;;;;5098225;28;20310;-87
2021/09/10 07:11:32;;;;;;;11.25;5.68;;;;;;;;;;5098379;28;20016;-86
2021/09/10 07:13:58;;;;;;;12.68;4.93;;;;;;;;;;5097915;28;20024;-87
2021/09/10 07:16:25;;;;;;;12.68;6.00;;;;;;;;;;5097107;28;20032;-87
2021/09/10 07:18:51;;;;;;;14.75;8.40;;;;;;;;;;5096990;28;20020;-87
2021/09/10 07:21:17;;;;;;;10.50;5.55;;;;;;;;;;5098041;28;20020;-86
2021/09/10 07:23:43;;;;;;;18.88;8.18;;;;;;;;;;5098242;28;20344;-86
2021/09/10 07:26:09;;;;;;;9.15;5.63;;;;;;;;;;5098069;28;20024;-83
2021/09/10 07:28:36;;;;;;;31.25;19.55;;;;;;;;;;5097579;28;20039;-84
2021/09/10 07:31:03;;;;;;;59.03;40.38;;;;;;;;;;5096163;28;20028;-83
2021/09/10 07:33:29;;;;;;;26.00;13.80;;;;;;;;;;5097249;28;20462;-83
2021/09/10 07:35:55;;;;;;;44.17;28.42;;;;;;;;;;5097779;28;20076;-83
2021/09/10 07:38:21;;;;;;;82.57;53.50;;;;;;;;;;5096544;28;20054;-83
2021/09/10 07:40:48;;;;;;;61.38;43.42;;;;;;;;;;5097549;28;20104;-84
2021/09/10 07:43:14;;;;;;;29.15;17.67;;;;;;;;;;5096694;28;20031;-83
2021/09/10 07:45:40;;;;;;;27.80;16.00;;;;;;;;;;5096368;28;20028;-83
2021/09/10 07:48:06;;;;;;;19.02;8.23;;;;;;;;;;5097548;28;20039;-83
2021/09/10 07:50:32;;;;;;;27.70;16.40;;;;;;;;;;5098978;28;20024;-83
2021/09/10 07:52:58;;;;;;;18.10;5.03;;;;;;;;;;5100900;28;20036;-84
2021/09/10 07:55:24;;;;;;;17.33;7.45;;;;;;;;;;5100080;28;20024;-83
2021/09/10 07:57:50;;;;;;;13.65;5.82;;;;;;;;;;5100852;28;20032;-83
2021/09/10 08:00:21;;;;;;;15.35;7.05;;;;;;;;;;5101465;28;20031;-84
2021/09/10 08:02:47;;;;;;;11.60;4.57;;;;;;;;;;5101384;28;20028;-83
2021/09/10 08:05:13;;;;;;;12.15;7.65;;;;;;;;;;5100331;28;20027;-83
2021/09/10 08:07:39;;;;;;;14.77;7.72;;;;;;;;;;5101413;28;20024;-83
2021/09/10 08:10:05;;;;;;;15.13;8.23;;;;;;;;;;5101435;28;20198;-83
2021/09/10 08:12:31;;;;;;;17.10;4.60;;;;;;;;;;5101299;28;20028;-83
2021/09/10 08:14:58;;;;;;;10.05;4.47;;;;;;;;;;5101097;28;20031;-83
2021/09/10 08:17:24;;;;;;;14.45;4.50;;;;;;;;;;5100040;28;20313;-84
2021/09/10 08:19:50;;;;;;;11.32;4.10;;;;;;;;;;5100311;28;20035;-84
2021/09/10 08:22:17;;;;;;;11.13;3.92;;;;;;;;;;5100170;28;20078;-85
2021/09/10 08:24:45;;;;;;;26.55;11.10;;;;;;;;;;5100924;28;20024;-84
2021/09/10 08:27:12;;;;;;;18.73;9.77;;;;;;;;;;5099856;28;20413;-84
2021/09/10 08:29:38;;;;;;;33.95;21.67;;;;;;;;;;5101056;28;20052;-84
2021/09/10 08:32:04;;;;;;;12.48;4.15;;;;;;;;;;5100826;28;20048;-83
2021/09/10 08:34:30;;;;;;;12.45;3.47;;;;;;;;;;5100335;28;20055;-84
2021/09/10 08:36:56;;;;;;;6.22;3.60;;;;;;;;;;5101033;28;20031;-83
2021/09/10 08:39:22;;;;;;;17.08;4.20;;;;;;;;;;5099837;28;20077;-83
2021/09/10 08:41:48;;;;;;;12.63;3.95;;;;;;;;;;5100572;28;20028;-84
2021/09/10 08:44:17;;;;;;;12.68;3.90;;;;;;;;;;5100046;28;20047;-82
2021/09/10 08:46:44;;;;;;;13.68;3.17;;;;;;;;;;5100579;28;20088;-82
2021/09/10 08:49:11;;;;;;;9.18;3.63;;;;;;;;;;5098912;28;20021;-82
2021/09/10 08:51:37;;;;;;;12.38;3.60;;;;;;;;;;5100475;28;20099;-82
2021/09/10 08:54:03;;;;;;;14.68;3.40;;;;;;;;;;5099402;28;20039;-82
2021/09/10 08:56:29;;;;;;;16.67;3.53;;;;;;;;;;5098964;28;20058;-82
2021/09/10 08:59:06;;;;;;;6.97;3.17;;;;;;;;;;5099725;28;20036;-82
2021/09/10 09:01:32;;;;;;;10.13;3.50;;;;;;;;;;5099541;28;20046;-82
2021/09/10 09:04:03;;;;;;;14.75;4.28;;;;;;;;;;5099549;28;20039;-82
2021/09/10 09:06:33;;;;;;;12.02;3.65;;;;;;;;;;5099981;28;20107;-83
2021/09/10 09:08:59;;;;;;;12.98;3.63;;;;;;;;;;5100112;28;20027;-82
2021/09/10 09:11:26;;;;;;;9.93;3.80;;;;;;;;;;5100003;28;20020;-83
2021/09/10 09:13:54;;;;;;;7.97;3.17;;;;;;;;;;5099944;28;20027;-82
2021/09/10 09:16:24;;;;;;;5.47;2.78;;;;;;;;;;5098733;28;20355;-82
2021/09/10 09:18:51;;;;;;;12.10;3.33;;;;;;;;;;5099753;28;20048;-83
2021/09/10 09:21:33;;;;;;;10.48;3.75;;;;;;;;;;5098639;28;20028;-82
2021/09/10 09:23:59;;;;;;;;;;;;;;;;;;5100089;28;20020;-81
2021/09/10 09:26:27;;;;;;;7.00;3.85;;;;;;;;;;5098513;28;19904;-81
2021/09/10 09:29:12;;;;;;;10.10;3.80;;;;;;;;;;5098656;28;20043;-81
2021/09/10 09:31:39;;;;;;;9.27;3.10;;;;;;;;;;5099673;28;20026;-81
2021/09/10 09:34:05;;;;;;;8.48;3.00;;;;;;;;;;5099115;28;20051;-83
2021/09/10 09:36:32;;;;;;;11.05;3.08;;;;;;;;;;5098731;28;20016;-84
2021/09/10 09:38:58;;;;;;;8.60;3.30;;;;;;;;;;5098689;28;20337;-84
2021/09/10 09:41:25;;;;;;;10.25;3.38;;;;;;;;;;5099643;28;20309;-84
2021/09/10 09:43:52;;;;;;;7.85;3.28;;;;;;;;;;5099319;28;20016;-84
2021/09/10 09:46:19;;;;;;;7.82;2.97;;;;;;;;;;5099474;28;20028;-84
2021/09/10 09:48:50;;;;;;;14.07;3.33;;;;;;;;;;5098439;28;20024;-84
2021/09/10 09:51:22;;;;;;;14.43;3.33;;;;;;;;;;5099420;28;20024;-84
2021/09/10 09:53:49;;;;;;;10.70;3.97;;;;;;;;;;5099469;28;20045;-84
2021/09/10 09:56:15;;;;;;;9.77;4.00;;;;;;;;;;5099291;28;20024;-84
2021/09/10 09:58:42;;;;;;;10.20;4.18;;;;;;;;;;5099173;28;20062;-84
2021/09/10 10:01:12;;;;;;;12.10;3.67;;;;;;;;;;5099030;28;20044;-84
2021/09/10 10:03:39;;;;;;;9.27;2.97;;;;;;;;;;5099506;28;20070;-84
2021/09/10 10:06:09;;;;;;;9.73;3.53;;;;;;;;;;5098122;28;20027;-84
2021/09/10 10:08:41;;;;;;;11.77;3.28;;;;;;;;;;5098060;28;20487;-84
2021/09/10 10:11:10;;;;;;;10.07;3.05;;;;;;;;;;5099200;28;20020;-84
2021/09/10 10:13:36;;;;;;;11.63;3.45;;;;;;;;;;5097322;28;20115;-84
2021/09/10 10:16:02;;;;;;;15.05;3.60;;;;;;;;;;5097992;28;20039;-84
2021/09/10 10:18:35;;;;;;;8.75;2.83;;;;;;;;;;5098963;28;20020;-84
2021/09/10 10:21:01;;;;;;;11.70;2.97;;;;;;;;;;5098091;28;20039;-84
2021/09/10 10:23:43;;;;;;;6.45;2.72;;;;;;;;;;5099006;28;20437;-85
2021/09/10 10:26:09;;;;;;;8.95;2.92;;;;;;;;;;5098658;28;20032;-84
2021/09/10 10:28:42;;;;;;;9.55;3.10;;;;;;;;;;5098041;28;20115;-85
2021/09/10 10:31:09;;;;;;;16.95;3.50;;;;;;;;;;5098637;28;20429;-84
2021/09/10 10:33:35;;;;;;;14.45;3.00;;;;;;;;;;5098117;28;20043;-84
2021/09/10 10:36:21;;;;;;;7.75;3.45;;;;;;;;;;5098648;28;20020;-85
2021/09/10 10:39:05;;;;;;;8.85;3.10;;;;;;;;;;5097449;28;20436;-84
2021/09/10 10:41:43;;;;;;;15.07;3.53;;;;;;;;;;5097582;28;20035;-84
2021/09/10 10:44:28;;;;;;;16.88;2.92;;;;;;;;;;5097373;28;20096;-84
2021/09/10 10:47:04;;;;;;;8.45;3.00;;;;;;;;;;5097574;28;20087;-84
2021/09/10 10:49:34;;;;;;;5.13;2.55;;;;;;;;;;5098435;28;20032;-84
2021/09/10 10:52:00;;;;;;;85.53;8.10;;;;;;;;;;5098264;28;20023;-85
2021/09/10 10:54:27;;;;;;;11.38;2.60;;;;;;;;;;5098272;28;20360;-83
2021/09/10 10:56:56;;;;;;;12.45;3.47;;;;;;;;;;5098295;28;20429;-84
2021/09/10 10:59:27;;;;;;;8.77;2.80;;;;;;;;;;5096895;28;20368;-84
2021/09/10 11:02:09;;;;;;;11.43;2.88;;;;;;;;;;5098312;28;20024;-84
2021/09/10 11:04:41;;;;;;;7.55;2.70;;;;;;;;;;5098097;28;20032;-84
2021/09/10 11:07:08;;;;;;;7.28;2.50;;;;;;;;;;5097966;28;20027;-84
2021/09/10 11:09:34;;;;;;;7.18;2.92;;;;;;;;;;5097911;28;20073;-83
2021/09/10 11:12:01;;;;;;;9.45;3.08;;;;;;;;;;5097904;28;20103;-84
2021/09/10 11:14:33;;;;;;;8.13;2.78;;;;;;;;;;5097717;28;20030;-84
2021/09/10 11:17:15;;;;;;;8.93;2.50;;;;;;;;;;5096906;28;20024;-83
2021/09/10 11:19:48;;;;;;;11.90;2.67;;;;;;;;;;5096656;28;20416;-84
2021/09/10 11:22:14;;;;;;;7.03;2.90;;;;;;;;;;5096798;28;20028;-82
2021/09/10 11:24:41;;;;;;;8.05;2.80;;;;;;;;;;5097097;28;20295;-83
2021/09/10 11:27:27;;;;;;;10.43;3.22;;;;;;;;;;5097625;28;20024;-83
2021/09/10 11:29:54;;;;;;;9.57;3.00;;;;;;;;;;5097537;28;20024;-82
2021/09/10 11:32:23;;;;;;;25.55;15.00;;;;;;;;;;5097619;28;20024;-83
2021/09/10 11:34:49;;;;;;;18.00;9.10;;;;;;;;;;5096859;28;20130;-87
2021/09/10 11:37:29;;;;;;;13.45;4.72;;;;;;;;;;5096466;28;20052;-85
2021/09/10 11:39:55;;;;;;;10.00;3.40;;;;;;;;;;5097887;28;20065;-85
2021/09/10 11:42:31;;;;;;;11.80;6.82;;;;;;;;;;5097554;28;20016;-86
2021/09/10 11:45:08;;;;;;;20.85;13.68;;;;;;;;;;5097803;28;20030;-86
2021/09/10 11:47:34;;;;;;;8.63;3.38;;;;;;;;;;5096660;28;20119;-87
2021/09/10 11:50:01;;;;;;;9.55;3.30;;;;;;;;;;5096506;28;20028;-84
2021/09/10 11:52:34;;;;;;;12.55;3.78;;;;;;;;;;5097376;28;20024;-83
2021/09/10 11:55:07;;;;;;;31.02;20.55;;;;;;;;;;5097099;28;20314;-84
2021/09/10 11:57:33;;;;;;;10.88;4.65;;;;;;;;;;5097616;28;20043;-84
2021/09/10 12:00:01;;;;;;;16.33;10.77;;;;;;;;;;5096022;28;20023;-84
2021/09/10 12:02:27;;;;;;;7.28;4.00;;;;;;;;;;5097447;28;20031;-85
2021/09/10 12:04:57;;;;;;;6.20;3.05;;;;;;;;;;5097672;28;20047;-84
2021/09/10 12:07:26;;;;;;;12.27;3.28;;;;;;;;;;5097508;28;20032;-82
2021/09/10 12:09:52;;;;;;;8.13;3.15;;;;;;;;;;5097307;28;20039;-84
2021/09/10 12:12:20;;;;;;;14.27;6.32;;;;;;;;;;5097310;28;20021;-84
2021/09/10 12:14:52;;;;;;;6.63;3.60;;;;;;;;;;5096315;28;20055;-84
2021/09/10 12:17:29;;;;;;;8.57;3.08;;;;;;;;;;5097362;28;20024;-85
2021/09/10 12:19:58;;;;;;;9.63;2.80;;;;;;;;;;5097221;28;20016;-85
2021/09/10 12:22:31;;;;;;;9.73;3.45;;;;;;;;;;5096405;28;20017;-85
2021/09/10 12:25:15;;;;;;;11.82;3.13;;;;;;;;;;5097302;28;20024;-85
2021/09/10 12:27:41;;;;;;;13.43;3.35;;;;;;;;;;5096324;28;20031;-84
2021/09/10 12:30:11;;;;;;;6.93;3.00;;;;;;;;;;5097049;28;20028;-85
2021/09/10 12:32:37;;;;;;;14.77;3.45;;;;;;;;;;5097593;28;20055;-84
2021/09/10 12:35:04;;;;;;;6.35;2.70;;;;;;;;;;5096849;28;20040;-85
2021/09/10 12:37:30;;;;;;;9.00;3.33;;;;;;;;;;5097510;28;20159;-84
2021/09/10 12:39:56;;;;;;;5.60;2.75;;;;;;;;;;5100084;28;20213;-85
2021/09/10 12:42:22;;;;;;;11.35;2.80;;;;;;;;;;5100022;28;20127;-86
2021/09/10 12:45:07;;;;;;;10.48;3.28;;;;;;;;;;5100607;28;20050;-84
2021/09/10 12:47:33;;;;;;;8.40;3.42;;;;;;;;;;5099788;28;20371;-84
2021/09/10 12:49:59;;;;;;;8.05;3.45;;;;;;;;;;5099386;28;20030;-85
2021/09/10 12:52:25;;;;;;;6.43;2.80;;;;;;;;;;5099863;28;20082;-84
2021/09/10 12:54:51;;;;;;;10.80;3.10;;;;;;;;;;5100524;28;20398;-85
2021/09/10 12:57:17;;;;;;;7.05;3.30;;;;;;;;;;5099586;28;20028;-85
2021/09/10 12:59:43;;;;;;;10.13;3.33;;;;;;;;;;5099475;28;20021;-85
2021/09/10 13:02:12;;;;;;;11.48;3.00;;;;;;;;;;5099518;28;20032;-84
2021/09/10 13:04:39;;;;;;;6.55;3.05;;;;;;;;;;5100276;28;20024;-83
2021/09/10 13:07:05;;;;;;;16.23;3.83;;;;;;;;;;5100328;28;20066;-84
2021/09/10 13:09:32;;;;;;;13.25;3.22;;;;;;;;;;5098946;28;20028;-84
2021/09/10 13:11:58;;;;;;;11.30;4.50;;;;;;;;;;5100089;28;20161;-84
2021/09/10 13:20:33;;;;;;;9.07;3.83;;;;;;;;;;5100165;28;20307;-85
2021/09/10 13:22:59;;;;;;;9.30;3.58;;;;;;;;;;5098801;28;20044;-84
2021/09/10 13:25:25;;;;;;;9.75;3.55;;;;;;;;;;5099092;28;20130;-84
2021/09/10 13:27:51;;;;;;;8.40;3.38;;;;;;;;;;5099945;28;20025;-84
2021/09/10 13:33:21;;;;;;;10.18;4.20;;;;;;;;;;5099669;28;20050;-84
2021/09/10 13:35:47;;;;;;;11.52;3.28;;;;;;;;;;5098796;28;20039;-85
2021/09/10 13:38:14;;;;;;;7.30;3.05;;;;;;;;;;5099859;28;20019;-85
2021/09/10 13:40:40;;;;;;;11.35;3.25;;;;;;;;;;5098669;28;20317;-85
2021/09/10 13:43:06;;;;;;;9.65;3.50;;;;;;;;;;5098904;28;20040;-84
2021/09/10 13:45:34;;;;;;;10.27;3.60;;;;;;;;;;5099280;28;20037;-83
2021/09/10 13:48:00;;;;;;;6.97;3.13;;;;;;;;;;5098026;28;20032;-84
2021/09/10 13:50:26;;;;;;;9.18;3.00;;;;;;;;;;5099308;28;20042;-84
2021/09/10 13:52:52;;;;;;;12.07;3.45;;;;;;;;;;5099279;28;20027;-83
2021/09/10 13:55:18;;;;;;;16.20;4.03;;;;;;;;;;5099221;28;20028;-84
2021/09/10 13:57:44;;;;;;;11.93;5.20;;;;;;;;;;5099260;28;20043;-84
2021/09/10 14:00:11;;;;;;;21.27;6.38;;;;;;;;;;5099158;28;20030;-85
2021/09/10 14:02:37;;;;;;;11.32;4.95;;;;;;;;;;5098950;28;20024;-84
2021/09/10 14:05:03;;;;;;;10.60;4.57;;;;;;;;;;5099185;28;20055;-82
2021/09/10 14:07:29;;;;;;;17.02;4.93;;;;;;;;;;5098807;28;20115;-84
2021/09/10 14:09:56;;;;;;;15.50;9.30;;;;;;;;;;5099361;28;20024;-84
2021/09/10 14:12:22;;;;;;;17.20;6.85;;;;;;;;;;5099071;28;20039;-84
2021/09/10 14:14:48;;;;;;;11.75;5.80;;;;;;;;;;5098482;28;20030;-84
2021/09/10 14:17:14;;;;;;;13.57;4.25;;;;;;;;;;5099004;28;20052;-84
2021/09/10 14:19:40;;;;;;;18.50;6.40;;;;;;;;;;5097836;28;20073;-83
2021/09/10 14:22:06;;;;;;;12.40;6.38;;;;;;;;;;5098786;28;20339;-83
2021/09/10 14:24:32;;;;;;;9.45;4.80;;;;;;;;;;5098552;28;20398;-83
2021/09/10 14:26:58;;;;;;;7.70;4.25;;;;;;;;;;5097895;28;20032;-83
2021/09/10 14:29:24;;;;;;;12.35;4.70;;;;;;;;;;5098588;28;20020;-84
2021/09/10 14:31:50;;;;;;;17.33;5.03;;;;;;;;;;5098601;28;20422;-84
2021/09/10 14:34:16;;;;;;;11.60;5.60;;;;;;;;;;5097728;28;20044;-84
2021/09/10 14:36:42;;;;;;;14.93;6.57;;;;;;;;;;5098378;28;20371;-82
2021/09/10 14:39:10;;;;;;;12.70;4.78;;;;;;;;;;5097791;28;20047;-83
2021/09/10 14:41:36;;;;;;;10.60;6.05;;;;;;;;;;5097297;28;20044;-84
2021/09/10 14:44:02;;;;;;;15.52;6.82;;;;;;;;;;5098350;28;20031;-84